KRBW

Lowcountry Regional Airport

Walterboro, South Carolina, USA
METAR KRBW 242115Z AUTO 06006KT 10SM SCT037 SCT043 SCT049 30/22 A3011 RMK AO2
Observed Flight Rules
Sep-24 @ 21:15 UTC (29 minutes ago) Visual Flight Rules
Wind Visibility Clouds
60° at 6 knots 10 miles
  • Scattered at 3,700' AGL
  • Scattered at 4,300' AGL
  • Scattered at 4,900' AGL
Temperatures Readings
Current 30°C / 86°F
Dewpoint 22°C / 72°F
Humidity 62%
Altimeter 30.11" Hg
Pressure 1020 hPa
Elevation 31
METAR KRBW 242115Z AUTO 06006KT 10SM SCT037 SCT043 SCT049 30/22 A3011 RMK AO2
Observed Flight Rules
Sep-24 @ 21:15 UTC
(29 minutes ago)
VFR
Wind Visibility
60° at 6 knots 10 miles
Clouds
  • Scattered at 3,700' AGL
  • Scattered at 4,300' AGL
  • Scattered at 4,900' AGL
Temperature Dewpoint
30°C / 86°F 22°C / 72°F
Humidity Altimeter Pressure
62% 30.11" Hg 1020 hPa